Time;durP1;ratioP1;P1;durP2;ratioP2;P2;SDS_P1;SDS_P2;PMS_P1;PMS_P2;Temp;Humidity;BMP_temperature;BMP_pressure;BME280_temperature;BME280_humidity;BME280_pressure;Samples;Min_cycle;Max_cycle;Signal;HPM_P1;HPM_P2
2023/01/25 00:00:19;;;;;;;;;;;;;;;25.36;35.90;95400.66;4952936;28;9309;-62
2023/01/25 00:02:55;;;;;;;;;;;;;;;25.34;36.11;95400.41;4934893;29;7109;-67
2023/01/25 00:05:23;;;;;;;;;;;;;;;25.35;36.42;95392.91;4951450;28;8701;-67
2023/01/25 00:07:49;;;;;;;;;;;;;;;25.36;36.08;95395.16;4937767;28;7212;-67
2023/01/25 00:10:17;;;;;;;;;;;;;;;25.35;35.93;95392.91;4934665;28;9180;-67
2023/01/25 00:12:45;;;;;;;;;;;;;;;25.35;35.91;95388.16;4938068;28;7040;-62
2023/01/25 00:15:15;;;;;;;;;;;;;;;25.36;36.37;95388.88;4950718;28;8707;-62
2023/01/25 00:17:48;;;;;;;;;;;;;;;25.36;36.33;95388.88;4940527;28;8713;-62
2023/01/25 00:20:17;;;;;;;;;;;;;;;25.35;36.05;95390.16;4950447;28;7193;-62
2023/01/25 00:22:45;;;;;;;;;;;;;;;25.36;36.18;95384.13;4934883;28;7387;-62
2023/01/25 00:25:15;;;;;;;;;;;;;;;25.36;36.15;95386.91;4928401;29;7210;-60
2023/01/25 00:27:43;;;;;;;;;;;;;;;25.35;35.65;95382.66;4944720;28;7499;-59
2023/01/25 00:30:09;;;;;;;;;;;;;;;25.36;35.91;95378.63;4945689;28;9387;-60
2023/01/25 00:32:46;;;;;;;;;;;;;;;25.33;35.86;95385.13;4947951;28;8897;-60
2023/01/25 00:35:21;;;;;;;;;;;;;;;25.36;36.13;95377.88;4932684;29;7279;-60
2023/01/25 00:37:51;;;;;;;;;;;;;;;25.35;35.97;95379.13;4953714;29;7266;-64
2023/01/25 00:40:20;;;;;;;;;;;;;;;25.37;35.64;95373.88;4936453;29;7026;-64
2023/01/25 00:42:47;;;;;;;;;;;;;;;25.33;35.88;95363.09;4948453;29;9088;-64
2023/01/25 00:45:24;;;;;;;;;;;;;;;25.36;36.19;95367.63;4953675;29;9020;-64
2023/01/25 00:47:53;;;;;;;;;;;;;;;25.34;36.00;95370.09;4951482;29;7266;-64
2023/01/25 00:50:21;;;;;;;;;;;;;;;25.35;35.84;95365.34;4951219;29;9187;-63
2023/01/25 00:53:05;;;;;;;;;;;;;;;25.36;36.23;95355.84;4936471;29;7043;-64
2023/01/25 00:56:04;;;;;;;;;;;;;;;25.37;35.57;95351.84;4946867;29;9525;-64
2023/01/25 00:58:47;;;;;;;;;;;;;;;25.36;36.00;95353.84;4913412;29;9123;-64
2023/01/25 01:01:42;;;;;;;;;;;;;;;25.38;36.52;95356.13;4900776;29;7087;-64
2023/01/25 01:04:25;;;;;;;;;;;;;;;25.36;35.74;95351.09;4835749;29;9453;-64
2023/01/25 01:06:53;;;;;;;;;;;;;;;25.36;35.57;95355.84;4835511;29;9450;-64
2023/01/25 01:09:20;;;;;;;;;;;;;;;25.35;35.66;95351.59;4840504;29;7096;-64
2023/01/25 01:11:46;;;;;;;;;;;;;;;25.37;36.43;95347.13;4855774;29;7680;-64
2023/01/25 01:14:42;;;;;;;;;;;;;;;25.37;36.57;95351.84;4856378;29;7277;-64
2023/01/25 01:17:18;;;;;;;;;;;;;;;25.36;35.91;95353.09;4804599;29;7056;-64
2023/01/25 01:19:56;;;;;;;;;;;;;;;25.37;36.50;95371.91;4808415;29;9111;-64
2023/01/25 01:22:22;;;;;;;;;;;;;;;25.37;36.08;95371.13;4814606;29;7036;-64
2023/01/25 01:24:50;;;;;;;;;;;;;;;25.37;36.15;95362.88;4822481;29;7530;-63
2023/01/25 01:27:22;;;;;;;;;;;;;;;25.36;35.82;95370.38;4799331;29;9047;-63
2023/01/25 01:29:50;;;;;;;;;;;;;;;25.37;35.92;95374.66;4819297;29;7238;-64
2023/01/25 01:32:19;;;;;;;;;;;;;;;25.37;36.04;95385.66;4807383;29;7052;-64
2023/01/25 01:34:49;;;;;;;;;;;;;;;25.33;36.26;95373.34;4819958;29;7266;-64
2023/01/25 01:37:17;;;;;;;;;;;;;;;25.37;36.13;95373.88;4825515;29;8708;-64
2023/01/25 01:40:13;;;;;;;;;;;;;;;25.38;36.35;95386.44;4837911;29;7054;-63
2023/01/25 01:43:19;;;;;;;;;;;;;;;25.37;35.82;95382.91;4863634;29;9473;-64
2023/01/25 01:46:17;;;;;;;;;;;;;;;25.34;36.05;95370.09;4840138;29;9027;-64
2023/01/25 01:49:28;;;;;;;;;;;;;;;25.35;36.74;95368.88;4843565;29;8728;-64
2023/01/25 01:52:14;;;;;;;;;;;;;;;25.35;35.92;95360.63;4859664;29;9741;-64
2023/01/25 01:54:46;;;;;;;;;;;;;;;25.36;35.84;95362.13;4841665;29;8699;-64
2023/01/25 01:57:33;;;;;;;;;;;;;;;25.34;36.64;95348.06;4855105;29;9026;-64
2023/01/25 02:00:07;;;;;;;;;;;;;;;25.34;36.13;95348.06;4841724;29;7609;-64
2023/01/25 02:03:12;;;;;;;;;;;;;;;25.35;36.70;95346.09;4860830;29;7063;-64
2023/01/25 02:06:28;;;;;;;;;;;;;;;25.35;35.98;95338.59;4852214;29;8959;-64
2023/01/25 02:08:55;;;;;;;;;;;;;;;25.34;36.18;95344.56;4840726;29;7050;-64
2023/01/25 02:11:22;;;;;;;;;;;;;;;25.34;35.91;95341.81;4858182;29;7099;-64
2023/01/25 02:13:59;;;;;;;;;;;;;;;25.33;36.17;95341.06;4848677;29;7015;-64
2023/01/25 02:16:35;;;;;;;;;;;;;;;25.32;36.14;95345.06;4868826;29;7233;-64
2023/01/25 02:19:02;;;;;;;;;;;;;;;25.33;35.98;95337.56;4851622;29;7038;-64
2023/01/25 02:21:56;;;;;;;;;;;;;;;25.35;35.92;95340.56;4858890;29;7556;-64
2023/01/25 02:24:33;;;;;;;;;;;;;;;25.34;35.68;95339.06;4913688;28;9246;-64
2023/01/25 02:27:00;;;;;;;;;;;;;;;25.35;36.47;95348.84;4954630;28;9158;-64
2023/01/25 02:29:44;;;;;;;;;;;;;;;25.35;36.19;95333.06;4938255;28;9717;-64
2023/01/25 02:32:22;;;;;;;;;;;;;;;25.35;35.77;95346.84;4955631;28;8204;-65
2023/01/25 02:35:04;;;;;;;;;;;;;;;25.35;35.88;95351.59;4952331;28;8765;-65
2023/01/25 02:37:48;;;;;;;;;;;;;;;25.35;36.13;95337.81;4954967;28;7450;-60
2023/01/25 02:40:15;;;;;;;;;;;;;;;25.35;36.64;95341.34;4954150;28;8132;-60
2023/01/25 02:42:47;;;;;;;;;;;;;;;25.32;36.06;95339.53;4949896;28;9213;-60
2023/01/25 02:45:21;;;;;;;;;;;;;;;25.36;35.73;95333.81;4946790;28;8694;-60
2023/01/25 02:47:47;;;;;;;;;;;;;;;25.36;36.60;95334.56;4932835;28;9042;-60
2023/01/25 02:50:15;;;;;;;;;;;;;;;25.37;36.46;95322.31;4928501;28;9537;-60
2023/01/25 02:52:41;;;;;;;;;;;;;;;25.39;36.22;95327.34;4935418;28;7304;-66
2023/01/25 02:55:07;;;;;;;;;;;;;;;25.36;35.95;95317.28;4944206;28;9086;-66
2023/01/25 02:57:36;;;;;;;;;;;;;;;25.37;36.71;95318.81;4935165;28;9079;-66
2023/01/25 03:00:06;;;;;;;;;;;;;;;25.34;36.23;95315.03;4946917;28;7339;-66
2023/01/25 03:02:34;;;;;;;;;;;;;;;25.36;36.40;95306.28;4935066;28;7131;-66
2023/01/25 03:05:00;;;;;;;;;;;;;;;25.36;36.61;95320.81;4932291;28;7507;-66
2023/01/25 03:07:26;;;;;;;;;;;;;;;25.36;36.53;95323.56;4945899;28;7436;-66
2023/01/25 03:09:52;;;;;;;;;;;;;;;25.36;36.75;95318.06;4932740;28;6980;-66
2023/01/25 03:12:18;;;;;;;;;;;;;;;25.35;36.20;95315.78;4916562;28;9260;-66
2023/01/25 03:14:51;;;;;;;;;;;;;;;25.36;36.87;95318.06;4931711;28;7222;-66
2023/01/25 03:17:30;;;;;;;;;;;;;;;25.35;36.11;95318.53;4931402;28;7201;-65
2023/01/25 03:20:07;;;;;;;;;;;;;;;25.34;36.77;95312.28;4955242;28;8282;-65
2023/01/25 03:23:13;;;;;;;;;;;;;;;25.36;36.35;95311.78;4954119;28;9372;-65
2023/01/25 03:26:11;;;;;;;;;;;;;;;25.37;36.86;95307.78;4938274;28;7473;-65
2023/01/25 03:28:50;;;;;;;;;;;;;;;25.37;36.36;95299.53;4877611;29;7589;-65
2023/01/25 03:31:32;;;;;;;;;;;;;;;25.36;36.27;95295.25;4876508;29;9112;-57
2023/01/25 03:34:08;;;;;;;;;;;;;;;25.35;36.63;95297.28;4877398;29;8899;-56
2023/01/25 03:36:38;;;;;;;;;;;;;;;25.35;36.74;95300.03;4858019;29;8509;-56
2023/01/25 03:39:25;;;;;;;;;;;;;;;25.35;36.79;95294.53;4869583;29;8771;-56
2023/01/25 03:41:56;;;;;;;;;;;;;;;25.36;36.66;95292.50;4849641;29;9001;-61
2023/01/25 03:45:00;;;;;;;;;;;;;;;25.35;35.99;95293.75;4872988;29;9098;-61
2023/01/25 03:47:28;;;;;;;;;;;;;;;25.34;36.75;95281.22;4874724;29;8703;-62
2023/01/25 03:50:39;;;;;;;;;;;;;;;25.35;36.95;95280.75;4875361;29;7266;-62
2023/01/25 03:53:28;;;;;;;;;;;;;;;25.36;36.17;95278.72;4874955;29;9122;-62
2023/01/25 03:56:09;;;;;;;;;;;;;;;25.34;36.68;95279.22;4852660;29;7287;-62
2023/01/25 03:58:50;;;;;;;;;;;;;;;25.32;36.62;95272.69;4851753;29;9338;-62
2023/01/25 04:01:29;;;;;;;;;;;;;;;25.34;36.47;95287.50;4860529;29;7290;-62
2023/01/25 04:04:07;;;;;;;;;;;;;;;25.34;36.55;95292.22;4866422;29;9351;-62
2023/01/25 04:06:37;;;;;;;;;;;;;;;25.34;36.12;95281.22;4889286;29;7629;-62
2023/01/25 04:09:03;;;;;;;;;;;;;;;25.34;36.03;95281.97;4876381;29;9080;-61
2023/01/25 04:11:29;;;;;;;;;;;;;;;25.34;36.30;95275.72;4891354;29;8740;-61
2023/01/25 04:13:56;;;;;;;;;;;;;;;25.32;36.44;95284.47;4875564;29;9589;-61
2023/01/25 04:16:26;;;;;;;;;;;;;;;25.32;36.81;95280.94;4880001;29;9088;-66
2023/01/25 04:18:52;;;;;;;;;;;;;;;25.35;36.35;95280.00;4891663;29;9283;-66
2023/01/25 04:21:18;;;;;;;;;;;;;;;25.34;36.84;95267.44;4877625;29;7617;-66
2023/01/25 04:23:48;;;;;;;;;;;;;;;25.35;36.05;95266.97;4899011;29;7212;-66
2023/01/25 04:26:14;;;;;;;;;;;;;;;25.34;36.12;95270.97;4867845;29;7505;-66
2023/01/25 04:28:40;;;;;;;;;;;;;;;25.36;36.88;95267.72;4873078;29;7990;-66
2023/01/25 04:31:06;;;;;;;;;;;;;;;25.35;36.66;95266.97;4929353;29;8643;-66
2023/01/25 04:33:35;;;;;;;;;;;;;;;25.33;36.81;95255.69;4949814;28;7073;-66
2023/01/25 04:36:01;;;;;;;;;;;;;;;25.32;36.56;95256.94;4926640;29;8734;-65
2023/01/25 04:38:28;;;;;;;;;;;;;;;25.36;36.67;95270.47;4931636;29;9110;-66
2023/01/25 04:41:28;;;;;;;;;;;;;;;25.36;35.89;95260.22;4950045;29;8917;-66
2023/01/25 04:43:55;;;;;;;;;;;;;;;25.36;36.74;95262.97;4893572;29;9036;-67
2023/01/25 04:46:33;;;;;;;;;;;;;;;25.36;36.31;95262.97;4910663;29;7150;-66
2023/01/25 04:49:19;;;;;;;;;;;;;;;25.35;36.08;95249.69;4898500;29;9335;-66
2023/01/25 04:51:57;;;;;;;;;;;;;;;25.35;36.98;95253.22;4899128;29;7130;-66
2023/01/25 04:55:09;;;;;;;;;;;;;;;25.37;36.04;95252.72;4901446;29;9336;-66
2023/01/25 04:57:38;;;;;;;;;;;;;;;25.35;36.39;95250.47;4881955;29;7170;-66
2023/01/25 05:00:07;;;;;;;;;;;;;;;25.36;36.45;95245.69;4896208;29;9370;-66
2023/01/25 05:02:33;;;;;;;;;;;;;;;25.35;36.44;95244.94;4897392;29;7023;-66
2023/01/25 05:04:59;;;;;;;;;;;;;;;25.34;36.53;95253.69;4896652;29;9089;-65
2023/01/25 05:07:27;;;;;;;;;;;;;;;25.36;36.78;95256.69;4895971;29;7311;-65
2023/01/25 05:09:55;;;;;;;;;;;;;;;25.32;36.17;95245.91;4892415;29;7252;-65
2023/01/25 05:12:24;;;;;;;;;;;;;;;25.34;36.23;95235.16;4892687;29;9110;-62
2023/01/25 05:14:52;;;;;;;;;;;;;;;25.36;35.87;95235.44;4892019;29;9163;-62
2023/01/25 05:17:20;;;;;;;;;;;;;;;25.36;36.76;95240.94;4886011;29;7140;-66
2023/01/25 05:19:46;;;;;;;;;;;;;;;25.35;36.31;95233.19;4890168;29;7017;-66
2023/01/25 05:22:19;;;;;;;;;;;;;;;25.37;36.91;95252.72;4875035;29;7248;-67
2023/01/25 05:24:46;;;;;;;;;;;;;;;25.36;36.22;95251.94;4891858;29;9275;-66
2023/01/25 05:27:18;;;;;;;;;;;;;;;25.36;36.29;95240.19;4893582;29;9276;-66
2023/01/25 05:29:53;;;;;;;;;;;;;;;25.36;36.07;95249.19;4892653;29;9346;-66
2023/01/25 05:32:21;;;;;;;;;;;;;;;25.35;36.48;95238.69;4886767;29;7112;-66
2023/01/25 05:34:48;;;;;;;;;;;;;;;25.35;36.01;95233.94;4929282;29;9011;-66
2023/01/25 05:37:17;;;;;;;;;;;;;;;25.34;36.52;95234.41;4935961;29;7315;-66
2023/01/25 05:39:47;;;;;;;;;;;;;;;25.35;36.66;95230.41;4935331;29;7265;-67
2023/01/25 05:42:27;;;;;;;;;;;;;;;25.33;36.55;95232.91;4950492;29;8959;-65
2023/01/25 05:45:09;;;;;;;;;;;;;;;25.37;36.55;95236.19;4931900;29;8920;-66
2023/01/25 05:47:42;;;;;;;;;;;;;;;25.38;37.03;95229.47;4950176;29;9061;-66
2023/01/25 05:50:09;;;;;;;;;;;;;;;25.37;36.93;95231.44;4948241;29;8801;-66
2023/01/25 05:52:37;;;;;;;;;;;;;;;25.38;36.91;95232.94;4951393;29;9020;-66
2023/01/25 05:55:38;;;;;;;;;;;;;;;25.38;37.00;95232.22;4938090;29;8732;-66
2023/01/25 05:58:08;;;;;;;;;;;;;;;25.37;36.28;95228.69;4888437;29;7315;-66
2023/01/25 06:00:36;;;;;;;;;;;;;;;25.38;37.18;95238.44;4894207;29;8780;-66
2023/01/25 06:03:32;;;;;;;;;;;;;;;25.39;36.68;95236.47;4880790;29;7980;-65
2023/01/25 06:06:01;;;;;;;;;;;;;;;25.40;36.74;95237.97;4877636;29;9420;-66
2023/01/25 06:11:34;;;;;;;;;;;;;;;25.44;37.25;95235.78;5060430;28;6664;-65
2023/01/25 06:13:59;;;;;;;;;;;;;;;25.46;36.54;95224.28;5045732;28;6967;-65
2023/01/25 06:16:28;;;;;;;;;;;;;;;25.47;37.08;95229.28;5056191;28;7196;-65
2023/01/25 06:18:54;;;;;;;;;;;;;;;25.48;37.20;95241.06;5049579;28;7606;-66
2023/01/25 06:21:24;;;;;;;;;;;;;;;25.47;37.45;95229.28;5048917;28;9205;-65
2023/01/25 06:23:56;;;;;;;;;;;;;;;25.46;36.90;95232.53;5050267;28;7038;-66
2023/01/25 06:26:30;;;;;;;;;;;;;;;25.46;37.37;95238.03;5042083;28;9193;-66
2023/01/25 06:29:16;;;;;;;;;;;;;;;25.46;37.72;95238.03;5038790;28;7036;-66
2023/01/25 06:31:44;;;;;;;;;;;;;;;25.45;37.27;95236.53;5042893;28;9154;-66
2023/01/25 06:34:23;;;;;;;;;;;;;;;25.45;36.89;95231.03;5034293;28;9173;-67
2023/01/25 06:36:49;;;;;;;;;;;;;;;25.42;37.21;95230.75;5044653;28;8300;-66
2023/01/25 06:39:17;;;;;;;;;;;;;;;25.41;36.27;95226.47;5064697;28;7441;-67
2023/01/25 06:41:57;;;;;;;;;;;;;;;25.39;36.94;95233.69;5067989;28;9036;-66
2023/01/25 06:44:33;;;;;;;;;;;;;;;25.39;37.00;95231.72;5037625;28;9051;-66
2023/01/25 06:47:11;;;;;;;;;;;;;;;25.39;36.41;95228.19;5039224;28;8947;-66
2023/01/25 06:49:58;;;;;;;;;;;;;;;25.39;37.46;95234.47;5048833;28;7906;-66
2023/01/25 06:52:24;;;;;;;;;;;;;;;25.39;37.49;95228.19;5037472;28;7286;-63
2023/01/25 06:55:19;;;;;;;;;;;;;;;25.39;37.40;95217.94;5044533;28;7715;-63
2023/01/25 06:58:07;;;;;;;;;;;;;;;25.39;37.46;95223.44;5048682;28;9341;-63
2023/01/25 07:01:07;;;;;;;;;;;;;;;25.40;37.23;95230.44;5043667;28;7034;-64
2023/01/25 07:03:51;;;;;;;;;;;;;;;25.43;37.21;95226.75;5024165;28;7060;-64
2023/01/25 07:06:55;;;;;;;;;;;;;;;25.46;37.72;95216.00;5024617;28;7978;-68
2023/01/25 07:09:23;;;;;;;;;;;;;;;25.50;37.19;95222.03;4996765;28;7142;-66
2023/01/25 07:11:49;;;;;;;;;;;;;;;25.51;37.63;95218.06;5010236;28;9394;-63
2023/01/25 07:14:18;;;;;;;;;;;;;;;25.50;37.30;95206.28;5005417;28;7456;-64
2023/01/25 07:16:43;;;;;;;;;;;;;;;25.56;36.39;95212.56;5019726;28;7333;-65
2023/01/25 07:19:12;;;;;;;;;;;;;;;25.54;36.25;95206.03;5002394;28;7217;-64
2023/01/25 07:21:38;;;;;;;;;;;;;;;25.52;36.33;95211.28;4995138;28;9156;-64
2023/01/25 07:24:18;;;;;;;;;;;;;;;25.50;36.76;95211.78;5003975;28;7299;-64
2023/01/25 07:26:49;;;;;;;;;;;;;;;25.52;37.56;95208.53;4963749;28;7435;-64
2023/01/25 07:29:32;;;;;;;;;;;;;;;25.59;37.62;95208.09;5009441;28;7127;-64
2023/01/25 07:32:12;;;;;;;;;;;;;;;25.60;37.52;95210.34;4990402;28;7375;-64
2023/01/25 07:34:40;;;;;;;;;;;;;;;25.55;37.13;95208.31;5002365;28;9374;-64
2023/01/25 07:37:14;;;;;;;;;;;;;;;25.51;37.53;95209.78;4992996;28;7263;-65
2023/01/25 07:39:46;;;;;;;;;;;;;;;25.46;37.13;95207.75;5020112;28;9012;-65
2023/01/25 07:42:14;;;;;;;;;;;;;;;25.45;36.97;95209.72;5022762;28;7390;-65
2023/01/25 07:45:16;;;;;;;;;;;;;;;25.44;37.88;95213.75;5025799;28;7239;-65
2023/01/25 07:47:46;;;;;;;;;;;;;;;25.42;37.44;95214.22;5029157;28;9347;-65
2023/01/25 07:50:12;;;;;;;;;;;;;;;25.39;37.08;95215.19;5026954;28;9098;-65
2023/01/25 07:52:45;;;;;;;;;;;;;;;25.41;37.05;95220.19;5020166;28;8700;-65
2023/01/25 07:55:19;;;;;;;;;;;;;;;25.39;37.64;95217.94;5036094;28;7329;-65
2023/01/25 07:57:59;;;;;;;;;;;;;;;25.40;37.11;95213.19;5020025;28;9031;-65
2023/01/25 08:00:26;;;;;;;;;;;;;;;25.37;37.09;95209.41;5029160;28;9344;-65
2023/01/25 08:02:52;;;;;;;;;;;;;;;25.38;37.68;95210.91;5039261;28;9029;-64
2023/01/25 08:05:25;;;;;;;;;;;;;;;25.41;37.31;95217.44;5021229;28;8864;-65
2023/01/25 08:08:11;;;;;;;;;;;;;;;25.42;37.03;95219.00;5020403;28;7547;-65
2023/01/25 08:10:37;;;;;;;;;;;;;;;25.38;37.82;95210.91;5041184;28;9199;-65
2023/01/25 08:13:06;;;;;;;;;;;;;;;25.38;37.54;95210.19;5053707;28;8927;-65
2023/01/25 08:15:32;;;;;;;;;;;;;;;25.40;38.02;95213.19;5054430;28;8248;-65
2023/01/25 08:17:59;;;;;;;;;;;;;;;25.39;37.81;95215.19;5044054;28;7108;-65
2023/01/25 08:20:26;;;;;;;;;;;;;;;25.39;37.03;95206.94;5039195;28;7280;-65
2023/01/25 08:22:52;;;;;;;;;;;;;;;25.40;37.40;95210.44;5042829;28;7284;-65
2023/01/25 08:25:21;;;;;;;;;;;;;;;25.38;37.03;95204.66;5047084;28;7269;-65
2023/01/25 08:27:51;;;;;;;;;;;;;;;25.38;37.58;95204.66;5042036;28;8212;-65
2023/01/25 08:30:16;;;;;;;;;;;;;;;25.38;37.11;95207.44;5042204;28;8753;-65
2023/01/25 08:32:44;;;;;;;;;;;;;;;25.40;36.97;95205.66;5048895;28;9067;-65
2023/01/25 08:35:13;;;;;;;;;;;;;;;25.40;37.75;95202.19;5050129;28;7121;-65
2023/01/25 08:37:49;;;;;;;;;;;;;;;25.38;37.71;95202.66;5041995;28;9417;-64
2023/01/25 08:40:23;;;;;;;;;;;;;;;25.40;37.52;95200.16;5034087;28;9036;-64
2023/01/25 08:43:24;;;;;;;;;;;;;;;25.42;37.00;95199.72;5037161;28;7036;-64
2023/01/25 08:46:05;;;;;;;;;;;;;;;25.40;37.33;95199.44;4930202;28;7949;-64
2023/01/25 08:48:47;;;;;;;;;;;;;;;25.40;37.29;95199.44;4923591;28;7248;-64
2023/01/25 08:51:19;;;;;;;;;;;;;;;25.39;37.63;95192.41;4922659;28;7144;-64
2023/01/25 08:54:05;;;;;;;;;;;;;;;25.39;37.23;95184.13;4932842;28;7366;-64
2023/01/25 08:56:35;;;;;;;;;;;;;;;25.38;37.65;95182.63;4939519;28;9257;-64
2023/01/25 08:59:05;;;;;;;;;;;;;;;25.36;37.94;95180.34;4932074;28;8877;-64
2023/01/25 09:01:36;;;;;;;;;;;;;;;25.37;37.87;95186.63;4935951;28;7109;-65
2023/01/25 09:04:04;;;;;;;;;;;;;;;25.37;37.29;95179.13;4929670;28;8185;-65
2023/01/25 09:07:21;;;;;;;;;;;;;;;25.37;37.54;95164.59;4935757;28;8733;-65
2023/01/25 09:09:47;;;;;;;;;;;;;;;25.34;38.07;95160.81;4930378;29;9438;-65
2023/01/25 09:12:13;;;;;;;;;;;;;;;25.37;37.80;95164.59;4933864;28;9020;-61
2023/01/25 09:14:39;;;;;;;;;;;;;;;25.36;38.41;95163.06;4932896;28;9224;-61
2023/01/25 09:17:05;;;;;;;;;;;;;;;25.36;38.61;95166.59;4944237;28;7099;-66
2023/01/25 09:19:34;;;;;;;;;;;;;;;25.36;37.94;95163.84;4914616;28;8815;-66
2023/01/25 09:22:01;;;;;;;;;;;;;;;25.38;37.94;95161.34;5012812;28;9087;-66
2023/01/25 09:24:29;;;;;;;;;;;;;;;25.38;38.16;95153.06;5034324;28;7898;-66
2023/01/25 09:26:57;;;;;;;;;;;;;;;25.37;38.44;95154.34;5044333;28;9069;-66
2023/01/25 09:29:42;;;;;;;;;;;;;;;25.39;38.93;95151.09;5053318;28;7438;-66
2023/01/25 09:32:16;;;;;;;;;;;;;;;25.39;38.69;95140.06;5047318;28;8738;-65
2023/01/25 09:34:48;;;;;;;;;;;;;;;25.39;38.35;95132.56;5035428;28;9012;-63
2023/01/25 09:41:12;;;;;;;;;;;;;;;25.38;37.74;95147.56;5033645;28;7612;-63
2023/01/25 09:47:55;;;;;;;;;;;;;;;25.39;38.63;95146.34;4986763;28;7061;-63
2023/01/25 09:50:26;;;;;;;;;;;;;;;25.39;38.64;95156.59;4887448;29;7460;-64
2023/01/25 09:53:15;;;;;;;;;;;;;;;25.41;38.50;95160.38;4901617;29;7473;-64
2023/01/25 09:56:10;;;;;;;;;;;;;;;25.40;38.35;95153.34;4906949;29;9463;-63
2023/01/25 09:58:52;;;;;;;;;;;;;;;25.40;37.73;95133.31;4901483;29;8718;-64
2023/01/25 10:01:34;;;;;;;;;;;;;;;25.45;37.60;95140.88;4910251;29;7208;-64
2023/01/25 10:04:34;;;;;;;;;;;;;;;25.43;37.12;95135.13;4905563;29;9403;-65
2023/01/25 10:07:55;;;;;;;;;;;;;;;25.44;37.37;95136.63;4804112;29;8734;-64
2023/01/25 10:10:34;;;;;;;;;;;;;;;25.42;38.06;95133.63;4765635;30;7540;-64
2023/01/25 10:13:08;;;;;;;;;;;;;;;25.41;37.78;95123.81;4749153;30;9216;-64
2023/01/25 10:15:43;;;;;;;;;;;;;;;25.41;38.56;95127.31;4767807;30;8616;-64
2023/01/25 10:18:20;;;;;;;;;;;;;;;25.42;37.67;95128.13;4758407;30;7014;-64
2023/01/25 10:21:06;;;;;;;;;;;;;;;25.43;37.98;95121.34;4760016;30;7262;-64
2023/01/25 10:27:44;;;;;;;;;;;;;;;25.43;38.38;95122.09;4842598;29;9729;-65
2023/01/25 10:30:47;;;;;;;;;;;;;;;25.43;37.77;95116.59;4847892;29;9159;-64
2023/01/25 10:33:51;;;;;;;;;;;;;;;25.42;37.80;95103.31;4849076;29;9418;-64
2023/01/25 10:36:48;;;;;;;;;;;;;;;25.43;38.81;95110.31;4817071;29;8725;-64
2023/01/25 10:40:03;;;;;;;;;;;;;;;25.43;37.77;95107.56;4796252;29;7261;-64
2023/01/25 10:43:13;;;;;;;;;;;;;;;25.38;37.90;95098.00;5045978;28;7205;-63
2023/01/25 10:45:41;;;;;;;;;;;;;;;25.43;38.03;95102.06;5081564;28;9028;-63
2023/01/25 10:48:16;;;;;;;;;;;;;;;25.44;38.22;95100.81;5055133;28;9669;-64
2023/01/25 10:50:59;;;;;;;;;;;;;;;25.45;38.30;95102.31;5019283;28;7063;-64
2023/01/25 10:53:57;;;;;;;;;;;;;;;25.45;38.74;95104.34;5035826;28;7048;-63
2023/01/25 10:56:48;;;;;;;;;;;;;;;25.45;38.42;95101.59;5011515;28;9135;-64
2023/01/25 10:59:27;;;;;;;;;;;;;;;25.44;38.00;95100.81;5038138;28;8883;-64
2023/01/25 11:02:40;;;;;;;;;;;;;;;25.47;38.78;95094.31;5025344;28;7893;-64
2023/01/25 11:05:34;;;;;;;;;;;;;;;25.46;38.44;95094.81;5059197;28;9139;-64
2023/01/25 11:08:20;;;;;;;;;;;;;;;25.47;39.38;95090.84;5025543;28;9068;-63
2023/01/25 11:10:47;;;;;;;;;;;;;;;25.46;39.53;95086.56;5060074;28;8979;-63
2023/01/25 11:13:53;;;;;;;;;;;;;;;25.47;39.91;95088.09;5055833;28;7032;-60
2023/01/25 11:16:47;;;;;;;;;;;;;;;25.47;40.38;95082.56;5052215;28;7044;-60
2023/01/25 11:19:43;;;;;;;;;;;;;;;25.48;39.80;95082.06;5052829;28;9032;-60
2023/01/25 11:22:30;;;;;;;;;;;;;;;25.49;39.57;95078.06;5054433;28;9160;-60
2023/01/25 11:25:25;;;;;;;;;;;;;;;25.51;39.15;95069.31;5039412;28;7228;-60
2023/01/25 11:28:17;;;;;;;;;;;;;;;25.50;39.41;95063.03;5049208;28;9038;-62
2023/01/25 11:30:47;;;;;;;;;;;;;;;25.51;40.09;95069.31;5027771;28;8190;-62
2023/01/25 11:33:19;;;;;;;;;;;;;;;25.51;39.47;95069.31;5023566;28;7038;-62
2023/01/25 11:36:12;;;;;;;;;;;;;;;25.51;39.93;95061.81;5037466;28;7337;-62
2023/01/25 11:39:22;;;;;;;;;;;;;;;25.52;39.42;95057.03;5028171;28;7436;-62
2023/01/25 11:41:54;;;;;;;;;;;;;;;25.51;39.55;95053.56;5018089;28;9107;-62
2023/01/25 11:44:41;;;;;;;;;;;;;;;25.51;39.48;95050.78;5014559;28;9051;-62
2023/01/25 11:47:25;;;;;;;;;;;;;;;25.54;39.02;95047.03;5013894;28;6988;-62
2023/01/25 11:50:02;;;;;;;;;;;;;;;25.58;39.04;95047.53;4992380;28;9045;-62
2023/01/25 11:52:53;;;;;;;;;;;;;;;25.56;39.12;95047.28;5012416;28;7061;-62
2023/01/25 11:56:06;;;;;;;;;;;;;;;25.55;38.79;95039.53;5001146;28;7497;-62
2023/01/25 11:59:12;;;;;;;;;;;;;;;25.54;38.87;95040.75;4929634;28;9536;-62
2023/01/25 12:02:07;;;;;;;;;;;;;;;25.58;38.91;95036.53;4910786;29;7284;-61
2023/01/25 12:05:03;;;;;;;;;;;;;;;25.61;38.48;95029.28;4933262;29;9090;-62
2023/01/25 12:07:52;;;;;;;;;;;;;;;25.65;38.46;95016.00;4911218;29;9153;-62
2023/01/25 12:10:59;;;;;;;;;;;;;;;25.64;39.41;95018.03;4923085;29;7264;-62
2023/01/25 12:13:46;;;;;;;;;;;;;;;25.65;38.37;95016.78;4878649;29;8992;-62
2023/01/25 12:16:30;;;;;;;;;;;;;;;25.64;39.32;95009.78;4878000;29;8750;-61
2023/01/25 12:19:14;;;;;;;;;;;;;;;25.66;38.43;95004.53;4859846;29;8765;-61
2023/01/25 12:21:46;;;;;;;;;;;;;;;25.65;39.32;95000.25;4870165;29;9066;-62
2023/01/25 12:24:36;;;;;;;;;;;;;;;25.63;38.93;94991.72;4856653;29;8742;-61
2023/01/25 12:27:40;;;;;;;;;;;;;;;25.67;38.65;94992.22;4865785;29;9049;-62
2023/01/25 12:30:37;;;;;;;;;;;;;;;25.72;39.21;94996.25;4856775;29;7252;-61
2023/01/25 12:33:56;;;;;;;;;;;;;;;25.72;38.45;94996.25;4857806;29;9406;-61
2023/01/25 12:36:24;;;;;;;;;;;;;;;25.71;37.88;94992.75;4928965;28;8696;-65
2023/01/25 12:39:02;;;;;;;;;;;;;;;25.72;37.98;94986.00;4907607;29;8919;-65
2023/01/25 12:41:50;;;;;;;;;;;;;;;25.69;39.10;94978.72;4927085;29;7051;-65
2023/01/25 12:44:27;;;;;;;;;;;;;;;25.68;38.71;94979.97;4909697;29;9132;-65
2023/01/25 12:46:56;;;;;;;;;;;;;;;25.70;38.24;94974.72;4924935;29;8699;-65
2023/01/25 12:49:52;;;;;;;;;;;;;;;25.67;38.81;94966.69;4947464;28;7044;-65
2023/01/25 12:52:33;;;;;;;;;;;;;;;25.67;38.31;94966.69;4981702;28;7212;-65
2023/01/25 12:55:29;;;;;;;;;;;;;;;25.65;38.82;94964.44;4987951;28;7687;-65
2023/01/25 12:57:56;;;;;;;;;;;;;;;25.68;38.30;94957.94;5003131;28;7121;-65
2023/01/25 13:00:42;;;;;;;;;;;;;;;25.66;38.53;94960.44;4998561;28;6985;-65
2023/01/25 13:03:44;;;;;;;;;;;;;;;25.62;37.98;94959.91;5004006;28;7026;-65
2023/01/25 13:06:44;;;;;;;;;;;;;;;25.60;38.47;94962.41;5001793;28;8809;-65
2023/01/25 13:09:34;;;;;;;;;;;;;;;25.57;38.56;94955.16;5003218;28;7064;-65
2023/01/25 13:12:11;;;;;;;;;;;;;;;25.56;38.64;94953.63;5027127;28;7057;-65
2023/01/25 13:14:39;;;;;;;;;;;;;;;25.55;39.02;94948.63;5015916;28;8743;-65
2023/01/25 13:17:17;;;;;;;;;;;;;;;25.55;38.39;94954.16;5009397;28;9157;-65
2023/01/25 13:19:46;;;;;;;;;;;;;;;25.54;38.32;94945.13;5036040;28;8045;-65
2023/01/25 13:22:58;;;;;;;;;;;;;;;25.54;38.29;94941.59;5009209;28;7471;-65
2023/01/25 13:25:28;;;;;;;;;;;;;;;25.54;38.78;94944.34;5008093;28;7061;-65
2023/01/25 13:28:32;;;;;;;;;;;;;;;25.52;38.71;94933.84;5024114;28;7619;-65
2023/01/25 13:30:58;;;;;;;;;;;;;;;25.51;38.34;94932.34;5033868;28;7292;-65
2023/01/25 13:33:35;;;;;;;;;;;;;;;25.51;39.61;94926.09;5035549;28;7266;-66
2023/01/25 13:36:47;;;;;;;;;;;;;;;25.53;38.97;94929.84;5027719;28;7893;-65
2023/01/25 13:39:33;;;;;;;;;;;;;;;25.54;39.31;94916.81;5003691;28;8958;-65
2023/01/25 13:42:09;;;;;;;;;;;;;;;25.55;39.30;94921.84;5035601;28;7087;-65
2023/01/25 13:44:48;;;;;;;;;;;;;;;25.52;39.71;94917.31;5002547;28;9018;-65
2023/01/25 13:47:20;;;;;;;;;;;;;;;25.54;39.52;94917.56;5009865;28;9063;-65
2023/01/25 13:50:01;;;;;;;;;;;;;;;25.54;39.62;94914.81;5008620;28;9100;-65
2023/01/25 13:52:31;;;;;;;;;;;;;;;25.54;39.56;94914.81;5005572;28;7286;-66
2023/01/25 13:55:29;;;;;;;;;;;;;;;25.53;39.30;94927.09;5005463;28;7083;-65
2023/01/25 13:58:41;;;;;;;;;;;;;;;25.52;39.29;94922.84;5030497;28;7329;-65
2023/01/25 14:01:25;;;;;;;;;;;;;;;25.50;39.57;94911.56;5018100;28;9117;-65
2023/01/25 14:03:58;;;;;;;;;;;;;;;25.48;39.17;94916.81;5024080;28;7798;-65
2023/01/25 14:06:28;;;;;;;;;;;;;;;25.50;39.04;94919.81;5025261;28;7298;-66
2023/01/25 14:09:01;;;;;;;;;;;;;;;25.51;39.61;94915.84;5024257;28;7257;-65
2023/01/25 14:11:33;;;;;;;;;;;;;;;25.50;39.26;94914.31;4996638;28;7415;-65